Time;durP1;ratioP1;P1;durP2;ratioP2;P2;SDS_P1;SDS_P2;PMS_P1;PMS_P2;Temp;Humidity;BMP_temperature;BMP_pressure;BME280_temperature;BME280_humidity;BME280_pressure;Samples;Min_cycle;Max_cycle;Signal;HPM_P1;HPM_P2
2021/05/17 00:03:17;;;;;;;1.97;1.40;;;;;;;;;;10294894;28;20481;-65
2021/05/17 00:08:15;;;;;;;2.63;1.87;;;;;;;;;;10291064;28;20124;-65
2021/05/17 00:13:13;;;;;;;2.97;1.10;;;;;;;;;;10288930;28;20399;-65
2021/05/17 00:18:11;;;;;;;2.07;1.07;;;;;;;;;;10255708;28;20411;-64
2021/05/17 00:23:08;;;;;;;1.73;1.00;;;;;;;;;;10296331;28;20048;-64
2021/05/17 00:28:06;;;;;;;2.23;1.73;;;;;;;;;;10284603;28;20034;-64
2021/05/17 00:33:03;;;;;;;2.00;0.60;;;;;;;;;;10283047;28;20044;-62
2021/05/17 00:38:01;;;;;;;1.10;0.97;;;;;;;;;;10297944;28;20122;-63
2021/05/17 00:42:58;;;;;;;0.67;0.40;;;;;;;;;;10288206;28;20033;-63
2021/05/17 00:47:56;;;;;;;1.03;0.93;;;;;;;;;;10287765;28;20519;-62
2021/05/17 00:52:54;;;;;;;0.80;0.60;;;;;;;;;;10279007;28;20040;-63
2021/05/17 00:57:52;;;;;;;1.90;1.60;;;;;;;;;;10271328;28;20077;-61
2021/05/17 01:02:51;;;;;;;2.60;1.60;;;;;;;;;;10285495;28;20604;-64
2021/05/17 01:08:08;;;;;;;0.60;0.32;;;;;;;;;;10288041;28;20069;-63
2021/05/17 01:13:06;;;;;;;2.75;2.28;;;;;;;;;;10293022;28;20036;-63
2021/05/17 01:18:04;;;;;;;2.97;2.10;;;;;;;;;;10292863;28;20046;-63
2021/05/17 01:23:29;;;;;;;8.75;1.13;;;;;;;;;;10287824;28;20049;-63
2021/05/17 01:28:27;;;;;;;0.85;0.85;;;;;;;;;;10291935;28;20026;-63
2021/05/17 01:33:31;;;;;;;3.55;0.90;;;;;;;;;;10288988;28;20037;-62
2021/05/17 01:38:29;;;;;;;1.52;1.00;;;;;;;;;;10290083;28;20557;-62
2021/05/17 01:43:27;;;;;;;1.90;1.80;;;;;;;;;;10299698;28;20068;-62
2021/05/17 01:48:25;;;;;;;3.63;2.43;;;;;;;;;;10289334;28;20402;-63
2021/05/17 01:53:23;;;;;;;;;;;;;;;;;;10285786;28;20088;-63
2021/05/17 01:58:22;;;;;;;3.33;1.42;;;;;;;;;;10282710;28;19941;-64
2021/05/17 02:03:23;;;;;;;3.97;2.05;;;;;;;;;;10289709;28;20449;-64
2021/05/17 02:08:21;;;;;;;3.60;2.50;;;;;;;;;;10282340;28;20099;-63
2021/05/17 02:13:25;;;;;;;2.58;2.03;;;;;;;;;;10308979;28;20033;-63
2021/05/17 02:18:23;;;;;;;3.35;2.70;;;;;;;;;;10310751;28;20638;-63
2021/05/17 02:23:21;;;;;;;4.30;2.20;;;;;;;;;;10300786;28;20029;-63
2021/05/17 02:28:22;;;;;;;7.45;2.20;;;;;;;;;;10284353;28;20398;-63
2021/05/17 02:33:20;;;;;;;1.47;1.13;;;;;;;;;;10303368;28;20033;-62
2021/05/17 02:38:18;;;;;;;;;;;;;;;;;;10327709;28;20037;-62
2021/05/17 02:43:22;;;;;;;2.90;1.63;;;;;;;;;;10295044;28;20003;-62
2021/05/17 02:48:29;;;;;;;1.65;1.17;;;;;;;;;;10301682;28;20075;-63
2021/05/17 02:53:29;;;;;;;0.20;0.20;;;;;;;;;;10314356;28;20044;-63
2021/05/17 02:58:30;;;;;;;0.45;0.32;;;;;;;;;;10294234;28;20037;-62
2021/05/17 03:03:30;;;;;;;2.58;1.50;;;;;;;;;;10289615;28;20030;-63
2021/05/17 03:08:49;;;;;;;3.15;1.45;;;;;;;;;;10327636;28;20033;-62
2021/05/17 03:13:50;;;;;;;0.20;0.20;;;;;;;;;;10289721;28;20048;-62
2021/05/17 03:18:49;;;;;;;0.10;0.10;;;;;;;;;;10312503;28;20075;-63
2021/05/17 03:23:47;;;;;;;1.25;0.85;;;;;;;;;;10309248;28;20038;-62
2021/05/17 03:28:45;;;;;;;1.83;1.30;;;;;;;;;;10306498;28;20427;-62
2021/05/17 03:33:42;;;;;;;1.40;0.93;;;;;;;;;;10311997;28;20064;-62
2021/05/17 03:38:40;;;;;;;2.60;0.73;;;;;;;;;;10304337;28;20079;-62
2021/05/17 03:43:38;;;;;;;1.10;1.00;;;;;;;;;;10306477;28;20034;-63
2021/05/17 03:48:41;;;;;;;1.27;1.00;;;;;;;;;;10308885;28;20030;-62
2021/05/17 03:53:39;;;;;;;1.10;1.00;;;;;;;;;;10288021;28;20068;-61
2021/05/17 03:58:36;;;;;;;1.70;1.57;;;;;;;;;;10306593;28;20366;-61
2021/05/17 04:03:34;;;;;;;2.23;1.80;;;;;;;;;;10286756;28;20060;-62
2021/05/17 04:13:37;;;;;;;0.65;0.35;;;;;;;;;;10274109;28;20364;-62
2021/05/17 04:18:35;;;;;;;3.00;0.80;;;;;;;;;;10277590;28;20041;-61
2021/05/17 04:23:32;;;;;;;0.47;0.47;;;;;;;;;;10280480;28;20083;-62
2021/05/17 04:28:30;;;;;;;0.60;0.60;;;;;;;;;;10271133;28;20048;-62
2021/05/17 04:33:28;;;;;;;1.13;0.60;;;;;;;;;;10282497;28;21066;-62
2021/05/17 04:38:25;;;;;;;0.53;0.40;;;;;;;;;;10284359;28;20519;-61
2021/05/17 04:43:22;;;;;;;0.50;0.50;;;;;;;;;;10281423;28;20067;-61
2021/05/17 04:48:20;;;;;;;0.40;0.40;;;;;;;;;;10288998;28;20044;-61
2021/05/17 04:53:17;;;;;;;0.93;0.83;;;;;;;;;;10266423;28;20052;-61
2021/05/17 04:58:15;;;;;;;2.33;0.83;;;;;;;;;;10288657;28;20548;-63
2021/05/17 05:03:12;;;;;;;1.23;0.97;;;;;;;;;;10255972;28;20243;-63
2021/05/17 05:08:09;;;;;;;1.43;1.03;;;;;;;;;;10284973;28;20115;-62
2021/05/17 05:13:07;;;;;;;1.83;1.40;;;;;;;;;;10289356;28;20091;-59
2021/05/17 05:18:04;;;;;;;3.17;1.60;;;;;;;;;;10280909;28;20754;-61
2021/05/17 05:23:03;;;;;;;1.77;1.23;;;;;;;;;;10265049;28;20120;-62
2021/05/17 05:28:01;;;;;;;2.10;0.98;;;;;;;;;;10278293;28;20037;-62
2021/05/17 05:33:15;;;;;;;3.75;1.65;;;;;;;;;;10274600;28;20510;-63
2021/05/17 05:38:13;;;;;;;2.67;1.65;;;;;;;;;;10285536;28;20041;-62
2021/05/17 05:43:10;;;;;;;4.30;1.55;;;;;;;;;;10278291;28;20495;-62
2021/05/17 05:48:08;;;;;;;3.77;1.53;;;;;;;;;;10289652;28;20045;-62
2021/05/17 05:53:06;;;;;;;2.60;1.97;;;;;;;;;;10281096;28;20337;-62
2021/05/17 05:58:04;;;;;;;2.80;2.03;;;;;;;;;;10272123;28;20037;-62
2021/05/17 06:03:01;;;;;;;2.60;2.00;;;;;;;;;;10274769;28;20036;-62
2021/05/17 06:08:00;;;;;;;4.80;2.23;;;;;;;;;;10260657;28;20037;-62
2021/05/17 06:12:58;;;;;;;7.05;2.35;;;;;;;;;;10280137;28;20698;-62
2021/05/17 06:17:55;;;;;;;3.50;2.27;;;;;;;;;;10257680;28;20255;-62
2021/05/17 06:22:53;;;;;;;4.87;2.70;;;;;;;;;;10282275;28;20048;-62
2021/05/17 06:27:50;;;;;;;4.17;2.53;;;;;;;;;;10301282;28;20124;-62
2021/05/17 06:32:48;;;;;;;3.43;2.57;;;;;;;;;;10263914;28;20037;-62
2021/05/17 06:37:45;;;;;;;4.70;2.90;;;;;;;;;;10264284;28;20099;-62
2021/05/17 06:42:43;;;;;;;2.77;1.93;;;;;;;;;;10287746;28;20042;-63
2021/05/17 06:47:42;;;;;;;4.23;1.93;;;;;;;;;;10265309;28;20032;-63
2021/05/17 06:52:40;;;;;;;7.55;2.42;;;;;;;;;;10282150;28;20568;-62
2021/05/17 07:02:45;;;;;;;2.47;1.42;;;;;;;;;;10291889;28;20042;-61
2021/05/17 07:07:53;;;;;;;0.57;0.57;;;;;;;;;;10270047;28;20534;-61
2021/05/17 07:12:50;;;;;;;2.33;1.37;;;;;;;;;;10274260;28;20457;-61
2021/05/17 07:17:48;;;;;;;1.33;0.93;;;;;;;;;;10278168;28;20030;-61
2021/05/17 07:28:01;;;;;;;1.42;1.17;;;;;;;;;;10277858;28;20026;-62
2021/05/17 07:32:59;;;;;;;0.83;0.77;;;;;;;;;;10281390;28;20421;-62
2021/05/17 07:37:56;;;;;;;1.00;0.93;;;;;;;;;;10264291;28;20821;-62
2021/05/17 07:42:54;;;;;;;2.43;1.07;;;;;;;;;;10282212;28;20061;-61
2021/05/17 07:47:51;;;;;;;1.70;1.20;;;;;;;;;;10290195;28;20021;-61
2021/05/17 07:52:49;;;;;;;4.20;0.97;;;;;;;;;;10273143;28;20565;-61
2021/05/17 07:57:46;;;;;;;2.17;1.33;;;;;;;;;;10287068;28;20044;-61
2021/05/17 08:02:44;;;;;;;6.53;1.37;;;;;;;;;;10295119;28;20125;-62
2021/05/17 08:07:41;;;;;;;0.60;0.60;;;;;;;;;;10282557;28;20036;-62
2021/05/17 08:12:39;;;;;;;1.30;0.93;;;;;;;;;;10286736;28;20037;-62
2021/05/17 08:17:36;;;;;;;4.63;1.48;;;;;;;;;;10279200;28;20035;-62
2021/05/17 08:22:37;;;;;;;3.30;0.70;;;;;;;;;;10241102;28;20037;-63
2021/05/17 08:27:34;;;;;;;1.40;1.05;;;;;;;;;;10254796;28;20465;-61
2021/05/17 08:32:32;;;;;;;3.17;1.10;;;;;;;;;;10280171;28;20107;-62
2021/05/17 08:37:29;;;;;;;9.50;2.13;;;;;;;;;;10279459;28;20049;-61
2021/05/17 08:42:28;;;;;;;1.97;1.37;;;;;;;;;;10262440;28;20034;-63
2021/05/17 08:47:25;;;;;;;8.80;3.38;;;;;;;;;;10250886;28;20503;-63
2021/05/17 08:52:25;;;;;;;3.30;1.00;;;;;;;;;;10274413;28;20446;-63
2021/05/17 08:57:22;;;;;;;1.20;1.13;;;;;;;;;;10286026;28;20456;-62
2021/05/17 09:02:20;;;;;;;2.47;0.97;;;;;;;;;;10285559;28;20067;-61
2021/05/17 09:07:30;;;;;;;2.70;1.67;;;;;;;;;;10280683;28;20054;-62
2021/05/17 09:12:28;;;;;;;3.22;2.00;;;;;;;;;;10288493;28;20987;-63
2021/05/17 09:17:25;;;;;;;4.80;2.33;;;;;;;;;;10267560;28;20666;-62
2021/05/17 09:22:23;;;;;;;1.83;1.27;;;;;;;;;;10265754;28;20499;-62
2021/05/17 09:27:25;;;;;;;1.73;0.95;;;;;;;;;;10276882;28;20572;-64
2021/05/17 09:32:24;;;;;;;2.53;0.90;;;;;;;;;;10281026;28;20326;-60
2021/05/17 09:37:22;;;;;;;4.70;1.15;;;;;;;;;;10289433;28;20033;-61
2021/05/17 09:42:20;;;;;;;2.37;1.03;;;;;;;;;;10280753;28;20107;-60
2021/05/17 09:47:20;;;;;;;;;;;;;;;;;;10297522;28;20058;-63
2021/05/17 09:52:25;;;;;;;2.70;1.30;;;;;;;;;;10278416;28;19920;-63
2021/05/17 09:57:24;;;;;;;2.67;0.80;;;;;;;;;;10281972;28;20040;-62
2021/05/17 10:02:27;;;;;;;0.50;0.47;;;;;;;;;;10289384;28;20045;-63
2021/05/17 10:07:25;;;;;;;4.15;0.50;;;;;;;;;;10282359;28;20076;-61
2021/05/17 10:12:22;;;;;;;;;;;;;;;;;;10298626;28;20049;-61
2021/05/17 10:17:20;;;;;;;3.60;1.23;;;;;;;;;;10278841;28;20342;-60
2021/05/17 10:22:17;;;;;;;4.45;1.00;;;;;;;;;;10293507;28;20037;-62
2021/05/17 10:27:15;;;;;;;;;;;;;;;;;;10269247;28;20033;-63
2021/05/17 10:32:12;;;;;;;2.20;0.55;;;;;;;;;;10274829;28;19920;-62
2021/05/17 10:37:09;;;;;;;;;;;;;;;;;;10298026;28;20061;-63
2021/05/17 10:42:34;;;;;;;1.85;0.40;;;;;;;;;;10285988;28;20016;-62
2021/05/17 10:47:32;;;;;;;5.88;1.52;;;;;;;;;;10289035;28;20037;-63
2021/05/17 10:52:30;;;;;;;;;;;;;;;;;;10284399;28;20041;-63
2021/05/17 10:57:33;;;;;;;0.50;0.40;;;;;;;;;;10281607;28;21063;-63
2021/05/17 11:02:31;;;;;;;0.82;0.30;;;;;;;;;;10263885;28;20050;-63
2021/05/17 11:07:32;;;;;;;1.70;0.17;;;;;;;;;;10297110;28;20525;-63
2021/05/17 11:12:29;;;;;;;1.58;0.30;;;;;;;;;;10276986;28;20041;-62
2021/05/17 11:17:27;;;;;;;3.03;0.23;;;;;;;;;;10278405;28;20503;-62
2021/05/17 11:22:43;;;;;;;2.07;0.30;;;;;;;;;;10284770;28;20048;-63
2021/05/17 11:27:47;;;;;;;1.48;0.30;;;;;;;;;;10265102;28;20041;-64
2021/05/17 11:32:45;;;;;;;3.30;0.50;;;;;;;;;;10284044;28;20041;-64
2021/05/17 11:38:15;;;;;;;1.50;0.33;;;;;;;;;;10276187;28;20037;-64
2021/05/17 11:43:12;;;;;;;2.95;0.80;;;;;;;;;;10240452;28;20033;-64
2021/05/17 11:48:10;;;;;;;1.15;0.57;;;;;;;;;;10296118;28;20498;-63
2021/05/17 11:53:16;;;;;;;2.22;0.85;;;;;;;;;;10291527;28;20033;-63
2021/05/17 11:58:21;;;;;;;1.70;1.27;;;;;;;;;;10274562;28;20036;-63
2021/05/17 12:03:18;;;;;;;1.02;0.45;;;;;;;;;;10292872;28;20029;-62
2021/05/17 12:08:16;;;;;;;5.70;1.13;;;;;;;;;;10287779;28;20040;-63
2021/05/17 12:13:16;;;;;;;2.33;0.43;;;;;;;;;;10281594;28;20053;-63
2021/05/17 12:18:13;;;;;;;2.05;1.13;;;;;;;;;;10265159;28;20029;-62
2021/05/17 12:23:11;;;;;;;0.80;0.57;;;;;;;;;;10276025;28;20048;-65
2021/05/17 12:28:08;;;;;;;3.30;1.10;;;;;;;;;;10281200;28;20048;-63
2021/05/17 12:33:06;;;;;;;7.03;1.48;;;;;;;;;;10247521;28;20310;-61
2021/05/17 12:38:03;;;;;;;4.03;0.80;;;;;;;;;;10276963;28;20083;-63
2021/05/17 12:43:10;;;;;;;0.57;0.53;;;;;;;;;;10267449;28;20288;-60
2021/05/17 12:48:31;;;;;;;1.13;0.35;;;;;;;;;;10286384;28;20272;-62
2021/05/17 12:53:29;;;;;;;1.48;0.30;;;;;;;;;;10253071;28;20857;-62
2021/05/17 12:58:30;;;;;;;0.40;0.30;;;;;;;;;;10279642;28;20048;-62
2021/05/17 13:03:28;;;;;;;3.53;0.57;;;;;;;;;;10260256;28;20038;-63
2021/05/17 13:08:28;;;;;;;1.85;0.65;;;;;;;;;;10248266;28;20041;-61
2021/05/17 13:13:58;;;;;;;0.40;0.40;;;;;;;;;;10288756;28;20120;-61
2021/05/17 13:34:31;;;;;;;0.45;0.20;;;;;;;;;;10284484;28;20056;-62
2021/05/17 13:39:29;;;;;;;0.13;0.13;;;;;;;;;;10279087;28;20032;-62
2021/05/17 13:44:26;;;;;;;0.43;0.20;;;;;;;;;;10267395;28;20111;-62
2021/05/17 13:49:23;;;;;;;;;;;;;;;;;;10279074;28;20037;-62
2021/05/17 13:54:21;;;;;;;1.43;0.20;;;;;;;;;;10285516;28;20003;-62
2021/05/17 13:59:18;;;;;;;1.20;0.40;;;;;;;;;;10282963;28;20029;-62
2021/05/17 14:04:16;;;;;;;0.10;0.10;;;;;;;;;;10294581;28;20051;-61
2021/05/17 14:09:14;;;;;;;0.27;0.20;;;;;;;;;;10275832;28;20542;-62
2021/05/17 14:14:12;;;;;;;0.10;0.10;;;;;;;;;;10276139;28;20025;-62
2021/05/17 14:19:09;;;;;;;0.50;0.10;;;;;;;;;;10271062;28;20022;-62
2021/05/17 14:24:07;;;;;;;0.30;0.30;;;;;;;;;;10264627;28;20028;-61
2021/05/17 14:29:05;;;;;;;1.00;0.52;;;;;;;;;;10257514;28;20022;-62
2021/05/17 14:34:03;;;;;;;2.17;1.07;;;;;;;;;;10277260;28;20113;-62
2021/05/17 14:39:00;;;;;;;0.80;0.73;;;;;;;;;;10292652;28;20279;-62
2021/05/17 14:43:58;;;;;;;0.00;0.00;;;;;;;;;;10273700;28;20584;-62
2021/05/17 14:48:56;;;;;;;0.73;0.40;;;;;;;;;;10275271;28;20022;-62
2021/05/17 14:53:54;;;;;;;1.85;0.40;;;;;;;;;;10291645;28;20049;-62
2021/05/17 14:58:52;;;;;;;0.63;0.63;;;;;;;;;;10286013;28;20148;-64
2021/05/17 15:03:49;;;;;;;0.37;0.07;;;;;;;;;;10290370;28;20121;-65
2021/05/17 15:08:47;;;;;;;0.90;0.47;;;;;;;;;;10284634;28;20041;-63
2021/05/17 15:13:44;;;;;;;0.53;0.47;;;;;;;;;;10262479;28;20046;-64
2021/05/17 15:18:42;;;;;;;1.00;0.80;;;;;;;;;;10286813;28;20030;-63
2021/05/17 15:23:40;;;;;;;;;;;;;;;;;;10272832;28;20107;-64
2021/05/17 15:28:38;;;;;;;4.27;1.13;;;;;;;;;;10271102;28;20483;-63
2021/05/17 15:33:35;;;;;;;2.50;1.00;;;;;;;;;;10268567;28;20046;-63
2021/05/17 15:38:32;;;;;;;2.33;1.57;;;;;;;;;;10283212;28;20554;-62
2021/05/17 15:43:31;;;;;;;4.60;2.30;;;;;;;;;;10284416;28;20045;-62
2021/05/17 15:48:28;;;;;;;3.08;1.80;;;;;;;;;;10292437;28;20455;-61
2021/05/17 15:53:28;;;;;;;4.07;2.55;;;;;;;;;;10275759;28;20048;-62
2021/05/17 15:58:25;;;;;;;4.25;1.65;;;;;;;;;;10285919;28;20033;-63
2021/05/17 16:03:22;;;;;;;3.47;1.87;;;;;;;;;;10283357;28;20033;-63
2021/05/17 16:08:20;;;;;;;4.65;1.75;;;;;;;;;;10248126;28;20397;-61
2021/05/17 16:13:34;;;;;;;4.03;2.20;;;;;;;;;;10251124;28;20434;-64
2021/05/17 16:23:46;;;;;;;7.65;2.38;;;;;;;;;;10287002;28;20042;-63
2021/05/17 16:28:45;;;;;;;4.60;2.03;;;;;;;;;;10270631;28;20040;-63
2021/05/17 16:33:42;;;;;;;4.25;2.00;;;;;;;;;;10260675;28;20419;-63
2021/05/17 16:38:40;;;;;;;6.00;3.13;;;;;;;;;;10283832;28;20029;-63
2021/05/17 16:43:37;;;;;;;5.23;2.17;;;;;;;;;;10271396;28;20732;-62
2021/05/17 16:48:34;;;;;;;1.33;0.83;;;;;;;;;;10291512;28;20159;-63
2021/05/17 16:53:32;;;;;;;4.17;1.30;;;;;;;;;;10263543;28;20037;-61
2021/05/17 16:58:30;;;;;;;1.87;0.60;;;;;;;;;;10252720;28;20280;-63
2021/05/17 17:03:27;;;;;;;0.50;0.50;;;;;;;;;;10287126;28;20042;-63
2021/05/17 17:08:25;;;;;;;0.93;0.70;;;;;;;;;;10291558;28;20526;-63
2021/05/17 17:13:23;;;;;;;7.38;2.65;;;;;;;;;;10285078;28;20117;-63
2021/05/17 17:18:20;;;;;;;4.60;2.37;;;;;;;;;;10281026;28;20038;-63
2021/05/17 17:23:18;;;;;;;2.30;0.73;;;;;;;;;;10272828;28;20176;-62
2021/05/17 17:28:15;;;;;;;3.72;1.60;;;;;;;;;;10274111;28;20095;-63
2021/05/17 17:33:13;;;;;;;1.75;0.90;;;;;;;;;;10274620;28;20084;-62
2021/05/17 17:38:11;;;;;;;1.97;1.00;;;;;;;;;;10258670;28;20060;-61
2021/05/17 17:43:08;;;;;;;2.17;1.13;;;;;;;;;;10273093;28;20088;-62
2021/05/17 17:48:07;;;;;;;5.73;0.83;;;;;;;;;;10265210;28;20056;-61
2021/05/17 17:53:05;;;;;;;2.45;0.88;;;;;;;;;;10276235;28;20057;-63
2021/05/17 17:58:02;;;;;;;1.65;0.98;;;;;;;;;;10273429;28;20042;-63
2021/05/17 18:03:00;;;;;;;0.80;0.80;;;;;;;;;;10265409;28;20041;-63
2021/05/17 18:07:57;;;;;;;1.50;0.43;;;;;;;;;;10261371;28;20034;-63
2021/05/17 18:12:58;;;;;;;1.47;0.90;;;;;;;;;;10257704;28;20133;-63
2021/05/17 18:17:57;;;;;;;1.17;1.00;;;;;;;;;;10274351;28;20204;-61
2021/05/17 18:22:54;;;;;;;5.65;0.90;;;;;;;;;;10267867;28;20037;-63
2021/05/17 18:27:52;;;;;;;3.50;0.77;;;;;;;;;;10285476;28;20026;-62
2021/05/17 18:38:13;;;;;;;1.30;0.70;;;;;;;;;;10280382;28;20096;-63
2021/05/17 18:43:15;;;;;;;2.33;1.47;;;;;;;;;;10284737;28;20561;-61
2021/05/17 18:48:15;;;;;;;1.00;0.90;;;;;;;;;;10276333;28;20049;-61
2021/05/17 18:53:13;;;;;;;1.88;1.20;;;;;;;;;;10255147;28;20133;-62
2021/05/17 18:58:10;;;;;;;4.63;1.43;;;;;;;;;;10278233;28;20136;-62
2021/05/17 19:03:08;;;;;;;1.27;1.17;;;;;;;;;;10278624;28;20034;-62
2021/05/17 19:08:05;;;;;;;2.57;1.40;;;;;;;;;;10246909;28;20577;-62
2021/05/17 19:13:03;;;;;;;1.70;0.60;;;;;;;;;;10272680;28;20044;-62
2021/05/17 19:18:01;;;;;;;2.85;0.80;;;;;;;;;;10265796;28;20033;-62
2021/05/17 19:22:58;;;;;;;0.77;0.40;;;;;;;;;;10265158;28;20041;-61
2021/05/17 19:27:55;;;;;;;3.37;1.43;;;;;;;;;;10269372;28;20034;-61
2021/05/17 19:32:54;;;;;;;0.97;0.57;;;;;;;;;;10253835;28;20128;-62
2021/05/17 19:37:52;;;;;;;0.90;0.80;;;;;;;;;;10281496;28;20506;-60
2021/05/17 19:42:50;;;;;;;2.55;0.88;;;;;;;;;;10279061;28;20072;-62
2021/05/17 19:47:47;;;;;;;1.93;0.87;;;;;;;;;;10284665;28;20546;-62
2021/05/17 19:52:45;;;;;;;4.67;1.73;;;;;;;;;;10272097;28;20037;-62
2021/05/17 19:57:43;;;;;;;3.42;1.80;;;;;;;;;;10247252;28;20130;-63
2021/05/17 20:02:41;;;;;;;5.38;1.55;;;;;;;;;;10276127;28;20033;-61
2021/05/17 20:07:41;;;;;;;4.00;1.50;;;;;;;;;;10287272;28;20041;-62
2021/05/17 20:12:39;;;;;;;2.38;1.38;;;;;;;;;;10278501;28;20053;-64
2021/05/17 20:17:38;;;;;;;3.80;2.15;;;;;;;;;;10278383;28;20026;-61
2021/05/17 20:22:36;;;;;;;5.40;1.23;;;;;;;;;;10272418;28;20049;-62
2021/05/17 20:27:34;;;;;;;3.92;1.52;;;;;;;;;;10283217;28;20033;-61
2021/05/17 20:32:33;;;;;;;10.47;3.10;;;;;;;;;;10264431;28;20045;-63
2021/05/17 20:37:30;;;;;;;7.57;2.67;;;;;;;;;;10281968;28;20041;-63
2021/05/17 20:42:28;;;;;;;4.87;2.73;;;;;;;;;;10293082;28;20041;-62
2021/05/17 20:47:25;;;;;;;8.77;3.63;;;;;;;;;;10286943;28;20053;-61
2021/05/17 20:52:23;;;;;;;8.63;2.93;;;;;;;;;;10283159;28;20558;-62
2021/05/17 20:57:20;;;;;;;11.50;3.23;;;;;;;;;;10287824;28;20026;-61
2021/05/17 21:02:17;;;;;;;5.23;2.70;;;;;;;;;;10275940;28;20258;-61
2021/05/17 21:07:15;;;;;;;6.10;2.33;;;;;;;;;;10275038;28;20041;-62
2021/05/17 21:12:12;;;;;;;8.70;1.40;;;;;;;;;;10272681;28;20025;-63
2021/05/17 21:17:10;;;;;;;6.43;2.97;;;;;;;;;;10294563;28;20458;-63
2021/05/17 21:22:07;;;;;;;8.20;2.50;;;;;;;;;;10302375;28;20493;-62
2021/05/17 21:27:04;;;;;;;5.43;2.17;;;;;;;;;;10272712;28;20087;-62
2021/05/17 21:32:02;;;;;;;1.07;0.93;;;;;;;;;;10277851;28;20041;-60
2021/05/17 21:37:00;;;;;;;5.78;2.60;;;;;;;;;;10294681;28;20049;-61
2021/05/17 21:41:57;;;;;;;1.90;1.30;;;;;;;;;;10293760;28;20099;-62
2021/05/17 21:46:55;;;;;;;2.97;1.97;;;;;;;;;;10278778;28;20045;-61
2021/05/17 21:51:52;;;;;;;6.57;2.70;;;;;;;;;;10294092;28;20386;-61
2021/05/17 21:56:50;;;;;;;4.07;1.87;;;;;;;;;;10287243;28;20088;-64
2021/05/17 22:01:47;;;;;;;3.00;1.63;;;;;;;;;;10280044;28;20037;-63
2021/05/17 22:06:47;;;;;;;4.97;1.87;;;;;;;;;;10281445;28;20041;-63
2021/05/17 22:11:45;;;;;;;6.65;2.42;;;;;;;;;;10289057;28;20513;-60
2021/05/17 22:16:42;;;;;;;8.17;2.60;;;;;;;;;;10286003;28;20037;-63
2021/05/17 22:21:40;;;;;;;2.73;1.77;;;;;;;;;;10251974;28;20034;-63
2021/05/17 22:26:39;;;;;;;9.98;3.13;;;;;;;;;;10291941;28;20037;-63
2021/05/17 22:31:37;;;;;;;6.18;1.85;;;;;;;;;;10281014;28;20041;-64
2021/05/17 22:36:35;;;;;;;5.45;1.92;;;;;;;;;;10295602;28;20037;-64
2021/05/17 22:41:32;;;;;;;9.73;2.70;;;;;;;;;;10299256;28;20033;-63
2021/05/17 22:46:30;;;;;;;2.23;1.53;;;;;;;;;;10301062;28;20522;-62
2021/05/17 22:51:29;;;;;;;4.50;1.43;;;;;;;;;;10276897;28;20744;-63
2021/05/17 22:56:27;;;;;;;8.82;4.13;;;;;;;;;;10293515;28;20152;-63
2021/05/17 23:01:24;;;;;;;11.13;2.20;;;;;;;;;;10295332;28;20061;-64
2021/05/17 23:06:23;;;;;;;5.93;1.90;;;;;;;;;;10280474;28;20545;-63
2021/05/17 23:11:21;;;;;;;5.82;2.42;;;;;;;;;;10309853;28;20788;-59
2021/05/17 23:16:19;;;;;;;3.45;2.08;;;;;;;;;;10287224;28;20057;-60
2021/05/17 23:21:24;;;;;;;4.80;2.60;;;;;;;;;;10297099;28;20033;-61
2021/05/17 23:31:39;;;;;;;5.32;2.35;;;;;;;;;;10317800;28;20683;-59
2021/05/17 23:36:36;;;;;;;2.00;1.80;;;;;;;;;;10303801;28;20129;-62
2021/05/17 23:41:34;;;;;;;3.43;1.43;;;;;;;;;;10311803;28;20068;-62
2021/05/17 23:46:32;;;;;;;5.18;2.33;;;;;;;;;;10300302;28;20045;-62
2021/05/17 23:51:29;;;;;;;3.97;1.60;;;;;;;;;;10289089;28;20455;-62
2021/05/17 23:56:26;;;;;;;4.13;1.03;;;;;;;;;;10276138;28;20041;-62
